createdAt,value
2022-07-28T01:28:15.183Z,66.76
2022-07-28T02:33:00.899Z,67.81
2022-07-28T02:35:51.514Z,67.52
2022-07-28T02:49:06.522Z,66.74
2022-07-28T02:55:40.989Z,66.71
2022-07-28T03:23:16.845Z,67.80
2022-07-28T03:29:34.351Z,68.35
2022-07-28T03:39:11.509Z,67.93
2022-07-28T03:41:51.576Z,68.01
2022-07-28T03:48:33.814Z,68.95
2022-07-28T03:51:30.641Z,68.86
2022-07-28T03:54:12.040Z,68.56
2022-07-28T04:04:16.823Z,68.40
2022-07-28T04:38:03.978Z,67.75
2022-07-28T04:40:30.756Z,67.94
2022-07-28T04:42:57.580Z,68.07
2022-07-28T04:45:24.390Z,68.21
2022-07-28T04:47:52.064Z,68.10
2022-07-28T04:50:21.474Z,68.12
2022-07-28T04:52:57.528Z,68.11
2022-07-28T04:55:25.089Z,68.00
2022-07-28T04:57:51.815Z,68.28
2022-07-28T05:00:20.088Z,68.01
2022-07-28T05:02:52.921Z,68.10
2022-07-28T05:05:33.416Z,68.17
2022-07-28T05:08:00.273Z,68.04
2022-07-28T05:10:36.262Z,67.53
2022-07-28T05:33:12.565Z,66.94
2022-07-28T05:36:00.951Z,66.19
2022-07-28T05:48:22.557Z,65.57
2022-07-28T05:54:32.702Z,64.85
2022-07-28T05:56:59.529Z,64.54
2022-07-28T06:02:52.985Z,64.29
2022-07-28T06:05:23.006Z,63.81
2022-07-28T06:07:50.933Z,63.37
2022-07-28T06:10:22.693Z,63.23
2022-07-28T06:12:58.155Z,63.12
2022-07-28T06:15:26.773Z,62.88
2022-07-28T06:17:56.183Z,62.64
2022-07-28T06:20:23.787Z,62.68
2022-07-28T06:22:52.397Z,62.36
2022-07-28T06:25:30.207Z,62.36
2022-07-28T06:28:03.871Z,62.04
2022-07-28T06:30:31.952Z,62.02
2022-07-28T06:32:59.131Z,61.92
2022-07-28T06:35:26.353Z,61.60
2022-07-28T06:37:53.911Z,61.78
2022-07-28T06:40:23.099Z,61.57
2022-07-28T06:42:50.560Z,61.18
2022-07-28T06:45:21.387Z,60.72
2022-07-28T06:47:49.627Z,60.82
2022-07-28T06:50:25.033Z,60.48
2022-07-28T06:52:56.931Z,60.51
2022-07-28T06:55:25.794Z,60.53
2022-07-28T06:58:01.857Z,60.24
2022-07-28T07:00:28.785Z,60.18
2022-07-28T07:02:55.597Z,59.64
2022-07-28T07:05:22.378Z,59.75
2022-07-28T07:07:49.320Z,59.32
2022-07-28T07:10:17.595Z,59.65
2022-07-28T07:12:45.846Z,59.02
2022-07-28T07:15:15.892Z,58.94
2022-07-28T07:17:43.011Z,58.63
2022-07-28T07:20:10.700Z,58.45
2022-07-28T07:22:42.724Z,58.25
2022-07-28T07:25:11.014Z,58.79
2022-07-28T07:27:38.291Z,58.86
2022-07-28T07:30:09.631Z,58.58
2022-07-28T07:32:37.422Z,58.48
2022-07-28T07:35:05.330Z,58.32
2022-07-28T07:37:35.291Z,57.94
2022-07-28T07:40:05.847Z,57.86
2022-07-28T07:42:32.837Z,57.35
2022-07-28T07:44:59.825Z,57.10
2022-07-28T07:47:26.666Z,57.26
2022-07-28T07:49:53.477Z,57.02
2022-07-28T07:52:20.552Z,57.14
2022-07-28T07:54:47.570Z,57.11
2022-07-28T07:57:14.518Z,56.74
2022-07-28T07:59:41.910Z,56.81
2022-07-28T08:02:08.850Z,56.53
2022-07-28T08:04:38.407Z,56.03
2022-07-28T08:07:06.636Z,56.22
2022-07-28T08:09:34.679Z,55.72
2022-07-28T08:12:01.599Z,55.53
2022-07-28T08:18:10.615Z,55.23
2022-07-28T08:20:41.416Z,54.86
2022-07-28T08:23:34.563Z,54.36
2022-07-28T08:26:13.424Z,54.34
2022-07-28T08:28:58.430Z,54.18
2022-07-28T08:34:26.398Z,54.05
2022-07-28T08:37:04.817Z,53.02
2022-07-28T08:39:38.975Z,52.89
2022-07-28T08:42:24.453Z,52.45
2022-07-28T08:45:19.022Z,52.20
2022-07-28T08:48:10.707Z,52.49
2022-07-28T08:50:42.822Z,52.12
2022-07-28T08:53:20.906Z,51.99
2022-07-28T08:56:04.948Z,52.45
2022-07-28T08:58:49.935Z,52.62
2022-07-28T09:01:20.571Z,52.34
2022-07-28T09:03:49.372Z,52.53
2022-07-28T09:06:16.679Z,52.77
2022-07-28T09:08:43.887Z,52.45
2022-07-28T09:11:16.102Z,51.82
2022-07-28T09:13:42.906Z,51.42
2022-07-28T09:16:09.793Z,51.07
2022-07-28T09:19:00.800Z,51.19
2022-07-28T09:21:27.705Z,50.75
2022-07-28T09:23:57.629Z,50.89
2022-07-28T09:26:27.921Z,50.71
2022-07-28T09:29:08.826Z,50.69
2022-07-28T09:32:09.231Z,50.83
2022-07-28T09:34:48.952Z,51.18
2022-07-28T09:37:30.005Z,50.64
2022-07-28T09:40:10.799Z,50.90
2022-07-28T09:42:58.420Z,50.77
2022-07-28T09:45:29.006Z,50.85
2022-07-28T09:48:13.476Z,50.25
2022-07-28T09:50:45.120Z,50.15
2022-07-28T09:53:28.277Z,50.16
2022-07-28T09:56:01.091Z,50.36
2022-07-28T09:58:52.927Z,50.10
2022-07-28T10:01:31.162Z,50.21
2022-07-28T10:04:14.739Z,50.19
2022-07-28T10:06:45.093Z,50.06
2022-07-28T10:09:30.262Z,50.12
2022-07-28T10:12:18.494Z,50.00
2022-07-28T10:14:49.045Z,50.39
2022-07-28T10:17:27.080Z,50.41
2022-07-28T10:20:05.439Z,50.20
2022-07-28T10:22:43.491Z,50.10
2022-07-28T10:36:13.025Z,49.17
2022-07-28T10:38:55.088Z,48.86
2022-07-28T10:41:41.308Z,48.62
2022-07-28T10:44:18.486Z,48.64
2022-07-28T10:46:50.963Z,48.07
2022-07-28T10:53:03.715Z,47.83
2022-07-28T10:59:46.405Z,46.92
2022-07-28T11:02:55.650Z,46.95
2022-07-28T11:05:39.696Z,46.11
2022-07-28T11:08:15.768Z,46.09
2022-07-28T11:17:10.075Z,45.39
2022-07-28T11:20:01.126Z,45.35
2022-07-28T11:22:34.576Z,44.89
2022-07-28T11:25:19.513Z,45.25
2022-07-28T11:27:50.818Z,44.79
2022-07-28T11:30:43.939Z,44.54
2022-07-28T11:33:20.022Z,44.27
2022-07-28T11:35:47.012Z,44.41
2022-07-28T11:38:31.183Z,44.19
2022-07-28T11:41:00.541Z,44.07
2022-07-28T11:44:00.083Z,43.46
2022-07-28T11:46:30.124Z,43.24
2022-07-28T11:49:17.878Z,43.84
2022-07-28T11:52:20.810Z,43.24
2022-07-28T11:54:50.029Z,43.27
2022-07-28T11:57:24.446Z,42.96
2022-07-28T12:00:18.662Z,42.57
2022-07-28T12:02:57.803Z,43.06
2022-07-28T12:05:25.557Z,42.85
2022-07-28T12:07:56.189Z,42.42
2022-07-28T12:11:00.689Z,41.74
2022-07-28T12:13:43.694Z,41.39
2022-07-28T12:16:14.276Z,40.97
2022-07-28T12:19:11.021Z,40.75
2022-07-28T12:21:49.004Z,39.94
2022-07-28T12:24:46.054Z,40.21
2022-07-28T12:27:16.904Z,40.16
2022-07-28T12:29:58.540Z,39.35
2022-07-28T12:32:35.417Z,39.68
2022-07-28T12:35:13.855Z,39.33
2022-07-28T12:37:48.212Z,39.08
2022-07-28T12:40:26.664Z,39.12
2022-07-28T12:43:13.099Z,38.17
2022-07-28T12:45:52.623Z,38.33
2022-07-28T12:48:25.060Z,38.11
2022-07-28T12:51:31.763Z,38.22
2022-07-28T12:54:09.171Z,37.53
2022-07-28T12:56:45.787Z,37.11
2022-07-28T12:59:16.176Z,36.90
2022-07-28T13:01:54.199Z,36.91
2022-07-28T13:04:54.634Z,36.98
2022-07-28T13:07:21.506Z,36.50
2022-07-28T13:10:02.417Z,35.90
2022-07-28T13:12:44.884Z,35.60
2022-07-28T13:15:27.308Z,35.82
2022-07-28T13:17:56.442Z,35.10
2022-07-28T13:20:26.790Z,33.99
2022-07-28T16:14:34.689Z,24.67
2022-07-28T16:17:29.659Z,24.93
2022-07-28T16:23:38.122Z,25.95
2022-07-28T16:26:20.345Z,26.38
2022-07-28T16:28:47.933Z,26.32
2022-07-28T16:31:14.756Z,26.48
2022-07-28T16:33:41.611Z,26.34
2022-07-28T16:36:10.904Z,27.14
2022-07-28T16:39:09.955Z,27.12
2022-07-28T16:45:53.012Z,27.73
2022-07-28T16:48:20.853Z,27.90
2022-07-28T16:50:47.610Z,27.93
2022-07-28T16:53:14.586Z,27.72
2022-07-28T16:55:42.351Z,28.22
2022-07-28T16:58:09.066Z,28.73
2022-07-28T17:00:36.092Z,29.53
2022-07-28T17:03:02.814Z,29.58
2022-07-28T17:05:29.482Z,29.79
2022-07-28T17:07:56.310Z,30.11
2022-07-28T17:10:27.070Z,30.55
2022-07-28T17:12:54.643Z,30.75
2022-07-28T17:15:22.745Z,30.97
2022-07-28T17:17:54.593Z,31.17
2022-07-28T17:20:25.572Z,30.94
2022-07-28T17:22:52.447Z,31.17
2022-07-28T17:28:06.925Z,31.52
2022-07-28T17:30:34.392Z,32.11
2022-07-28T17:33:07.886Z,31.43
2022-07-28T17:35:36.400Z,31.75
2022-07-28T17:38:04.548Z,31.84
2022-07-28T17:40:31.235Z,31.60
2022-07-28T17:42:58.043Z,32.12
2022-07-28T17:45:45.810Z,32.15
2022-07-28T17:48:12.741Z,31.98
2022-07-28T17:50:42.910Z,31.88
2022-07-28T17:53:22.038Z,32.48
2022-07-28T17:55:59.947Z,32.48
2022-07-28T17:58:29.533Z,33.13
2022-07-28T18:01:11.205Z,33.46
2022-07-28T18:03:59.343Z,33.79
2022-07-28T18:06:29.700Z,34.17
2022-07-28T18:08:56.725Z,34.08
2022-07-28T18:11:23.497Z,34.37
2022-07-28T18:14:03.605Z,34.31
2022-07-28T18:16:35.219Z,34.33
2022-07-28T18:19:02.765Z,34.74
2022-07-28T18:21:29.603Z,34.88
2022-07-28T18:23:56.354Z,34.99
2022-07-28T18:26:23.107Z,35.28
2022-07-28T18:28:50.009Z,35.66
2022-07-28T18:31:16.830Z,36.07
2022-07-28T18:33:44.135Z,36.09
2022-07-28T18:36:10.846Z,36.63
2022-07-28T18:38:37.552Z,36.85
2022-07-28T18:41:05.138Z,36.90
2022-07-28T18:43:31.811Z,37.08
2022-07-28T18:45:58.520Z,37.19
2022-07-28T18:48:28.101Z,37.68
2022-07-28T18:50:54.827Z,37.79
2022-07-28T18:53:21.576Z,38.14
2022-07-28T18:55:48.286Z,38.23
2022-07-28T18:58:15.003Z,38.73
2022-07-28T19:00:41.777Z,38.92
2022-07-28T19:03:08.640Z,38.96
2022-07-28T19:05:36.701Z,39.35
2022-07-28T19:08:05.464Z,39.76
2022-07-28T19:11:47.555Z,39.89
2022-07-28T19:14:00.816Z,40.27
2022-07-28T19:16:27.648Z,40.55
2022-07-28T19:18:54.823Z,40.94
2022-07-28T19:21:24.566Z,41.31
2022-07-28T19:24:00.042Z,42.04
2022-07-28T19:26:41.584Z,41.67
2022-07-28T19:29:27.810Z,41.99
2022-07-28T19:32:05.023Z,42.15
2022-07-28T19:34:36.550Z,42.23
2022-07-28T19:37:03.845Z,42.48
2022-07-28T19:39:34.230Z,42.81
2022-07-28T19:42:01.132Z,43.21
2022-07-28T19:44:30.293Z,43.64
2022-07-28T19:47:00.597Z,43.76
2022-07-28T19:49:27.464Z,44.32
2022-07-28T19:51:55.809Z,44.34
2022-07-28T19:54:23.849Z,44.53
2022-07-28T19:56:52.434Z,44.67
2022-07-28T19:59:22.588Z,45.00
2022-07-28T20:01:51.872Z,45.16
2022-07-28T20:04:21.495Z,45.44
2022-07-28T20:06:54.841Z,45.30
2022-07-28T20:09:22.425Z,45.40
2022-07-28T20:11:49.846Z,45.53
2022-07-28T20:14:17.530Z,45.64
2022-07-28T20:16:46.404Z,45.52
2022-07-28T20:19:16.603Z,45.73
2022-07-28T20:21:45.789Z,46.09
2022-07-28T20:24:21.793Z,45.97
2022-07-28T20:26:48.720Z,46.17
2022-07-28T20:29:18.400Z,46.03
2022-07-28T20:31:47.731Z,46.12
2022-07-28T20:34:15.485Z,45.98
2022-07-28T20:36:42.741Z,46.53
2022-07-28T20:39:42.179Z,46.31
2022-07-28T20:41:58.894Z,46.46
2022-07-28T20:44:29.190Z,46.78
2022-07-28T20:47:00.585Z,46.60
2022-07-28T20:49:28.788Z,46.70
2022-07-28T20:52:05.901Z,47.12
2022-07-28T20:54:38.276Z,47.05
2022-07-28T20:57:14.848Z,47.41
2022-07-28T20:59:54.133Z,47.52
2022-07-28T21:02:22.325Z,47.78
2022-07-28T21:04:50.523Z,47.77
2022-07-28T21:08:00.603Z,48.33
2022-07-28T21:10:17.055Z,48.52
2022-07-28T21:12:50.049Z,48.51
2022-07-28T21:15:49.900Z,48.65
2022-07-28T21:18:27.590Z,49.02
2022-07-28T21:21:12.161Z,49.36
2022-07-28T21:23:45.750Z,49.63
2022-07-28T21:26:27.139Z,49.71
2022-07-28T21:32:05.974Z,50.23
2022-07-28T21:34:48.535Z,50.75
2022-07-28T21:37:23.738Z,50.87
2022-07-28T21:39:56.030Z,51.17
2022-07-28T21:42:40.877Z,51.58
2022-07-28T21:45:11.408Z,52.10
2022-07-28T21:48:06.114Z,52.52
2022-07-28T21:50:38.023Z,52.65
2022-07-28T21:53:07.981Z,53.22
2022-07-28T21:55:35.305Z,53.32
2022-07-28T21:58:13.850Z,53.88
2022-07-28T22:00:47.919Z,53.88
2022-07-28T22:03:15.255Z,54.24
2022-07-28T22:05:47.311Z,54.64
2022-07-28T22:08:14.234Z,54.55
2022-07-28T22:10:51.896Z,55.16
2022-07-28T22:13:23.418Z,55.18
2022-07-28T22:15:53.621Z,55.37
2022-07-28T22:18:23.262Z,55.89
2022-07-28T22:21:01.194Z,55.98
2022-07-28T22:23:29.083Z,56.24
2022-07-28T22:25:59.696Z,56.32
2022-07-28T22:28:35.259Z,56.66
2022-07-28T22:31:25.587Z,57.03
2022-07-28T22:34:04.955Z,57.26
2022-07-28T22:36:32.193Z,57.54
2022-07-28T22:39:07.225Z,57.50
2022-07-28T22:41:39.844Z,57.54
2022-07-28T22:44:19.653Z,57.82
2022-07-28T22:46:49.164Z,58.11
2022-07-28T22:49:16.780Z,58.28
2022-07-28T22:51:51.564Z,58.40
2022-07-28T22:54:22.521Z,58.71
2022-07-28T22:56:49.760Z,59.01
2022-07-28T22:59:35.705Z,59.21
2022-07-28T23:02:16.062Z,59.20
2022-07-28T23:05:07.152Z,59.53
2022-07-28T23:07:52.987Z,59.85
2022-07-28T23:10:27.014Z,59.72
2022-07-28T23:12:56.129Z,59.91
2022-07-28T23:15:40.797Z,60.55
2022-07-28T23:18:10.704Z,60.87
2022-07-28T23:20:39.067Z,60.87
2022-07-28T23:23:06.402Z,61.26
2022-07-28T23:25:33.751Z,61.46
2022-07-28T23:28:00.892Z,61.34
2022-07-28T23:30:30.759Z,61.69
2022-07-28T23:32:57.891Z,61.93
2022-07-28T23:35:27.305Z,62.30
2022-07-28T23:37:54.260Z,62.23
2022-07-28T23:40:21.485Z,62.72
2022-07-28T23:42:48.881Z,62.78
2022-07-28T23:45:18.527Z,62.65
2022-07-28T23:47:45.516Z,62.91
2022-07-28T23:50:15.056Z,63.21
2022-07-28T23:52:42.224Z,63.06
2022-07-28T23:55:09.426Z,63.18
2022-07-28T23:57:39.113Z,63.58
